createdAt,value
2018-07-03T00:01:07.388Z,2.10
2018-07-03T00:03:35.746Z,2.80
2018-07-03T00:06:03.444Z,2.43
2018-07-03T00:08:31.029Z,2.50
2018-07-03T00:10:58.681Z,2.10
2018-07-03T00:13:26.306Z,2.10
2018-07-03T00:15:53.900Z,2.67
2018-07-03T00:18:23.554Z,2.50
2018-07-03T00:20:51.209Z,2.20
2018-07-03T00:23:18.870Z,2.93
2018-07-03T00:25:47.737Z,2.77
2018-07-03T00:28:15.331Z,2.50
2018-07-03T00:30:42.998Z,2.90
2018-07-03T00:33:10.664Z,2.40
2018-07-03T00:35:38.231Z,2.70
2018-07-03T00:38:05.907Z,2.70
2018-07-03T00:40:33.494Z,2.83
2018-07-03T00:43:01.063Z,2.63
2018-07-03T00:45:29.366Z,2.33
2018-07-03T00:47:56.932Z,2.33
2018-07-03T00:50:24.521Z,2.57
2018-07-03T00:52:52.161Z,2.67
2018-07-03T00:55:19.775Z,2.63
2018-07-03T00:57:48.204Z,2.80
2018-07-03T01:00:26.966Z,2.73
2018-07-03T01:02:54.585Z,3.20
2018-07-03T01:05:22.176Z,2.80
2018-07-03T01:07:49.767Z,2.97
2018-07-03T01:10:17.325Z,2.70
2018-07-03T01:12:44.905Z,2.47
2018-07-03T01:15:12.513Z,2.30
2018-07-03T01:17:40.162Z,2.37
2018-07-03T01:20:07.770Z,2.40
2018-07-03T01:22:35.298Z,2.37
2018-07-03T01:25:03.880Z,2.50
2018-07-03T01:27:31.477Z,2.73
2018-07-03T01:29:59.043Z,2.53
2018-07-03T01:32:26.655Z,3.20
2018-07-03T01:34:54.230Z,2.60
2018-07-03T01:37:21.820Z,2.43
2018-07-03T01:39:49.336Z,2.57
2018-07-03T01:42:16.932Z,2.80
2018-07-03T01:44:44.399Z,2.80
2018-07-03T01:47:12.019Z,2.90
2018-07-03T01:49:39.759Z,3.10
2018-07-03T01:52:08.352Z,2.97
2018-07-03T01:54:36.773Z,2.77
2018-07-03T01:57:04.400Z,2.90
2018-07-03T01:59:31.979Z,2.90
2018-07-03T02:01:59.888Z,3.13
2018-07-03T02:04:27.504Z,3.30
2018-07-03T02:06:55.804Z,2.70
2018-07-03T02:09:23.280Z,2.90
2018-07-03T02:11:50.877Z,3.60
2018-07-03T02:14:18.521Z,3.33
2018-07-03T02:16:46.120Z,3.03
2018-07-03T02:19:13.825Z,3.60
2018-07-03T02:21:41.556Z,2.87
2018-07-03T02:24:09.418Z,3.13
2018-07-03T02:26:36.995Z,2.80
2018-07-03T02:29:04.616Z,2.67
2018-07-03T02:31:32.184Z,2.90
2018-07-03T02:33:59.788Z,2.87
2018-07-03T02:36:27.347Z,2.40
2018-07-03T02:38:54.994Z,2.97
2018-07-03T02:41:22.610Z,2.80
2018-07-03T02:43:50.176Z,3.10
2018-07-03T02:46:17.829Z,2.70
2018-07-03T02:48:45.515Z,2.57
2018-07-03T02:51:13.158Z,3.10
2018-07-03T02:53:41.018Z,3.23
2018-07-03T02:56:08.638Z,3.57
2018-07-03T02:58:36.214Z,3.80
2018-07-03T03:01:04.138Z,4.00
2018-07-03T03:03:31.725Z,4.80
2018-07-03T03:05:59.381Z,3.90
2018-07-03T03:08:27.110Z,4.23
2018-07-03T03:10:55.722Z,4.13
2018-07-03T03:13:23.344Z,4.40
2018-07-03T03:15:51.005Z,4.37
2018-07-03T03:18:18.648Z,4.40
2018-07-03T03:20:46.234Z,4.90
2018-07-03T03:23:13.855Z,4.20
2018-07-03T03:25:42.425Z,4.20
2018-07-03T03:28:10.040Z,4.20
2018-07-03T03:30:37.636Z,4.20
2018-07-03T03:33:05.268Z,3.93
2018-07-03T03:35:33.330Z,4.10
2018-07-03T03:38:00.948Z,4.17
2018-07-03T03:40:28.604Z,4.03
2018-07-03T03:42:56.171Z,4.60
2018-07-03T03:45:24.518Z,4.30
2018-07-03T03:47:53.034Z,4.10
2018-07-03T03:50:20.614Z,4.07
2018-07-03T03:52:48.205Z,4.70
2018-07-03T03:55:15.880Z,3.97
2018-07-03T03:57:43.484Z,3.97
2018-07-03T04:00:11.112Z,4.17
2018-07-03T04:02:39.082Z,3.90
2018-07-03T04:05:06.781Z,4.27
2018-07-03T04:07:34.396Z,4.57
2018-07-03T04:10:02.074Z,4.20
2018-07-03T04:12:29.702Z,4.77
2018-07-03T04:14:57.313Z,4.30
2018-07-03T04:17:24.942Z,4.17
2018-07-03T04:19:55.318Z,3.90
2018-07-03T04:22:23.885Z,4.00
2018-07-03T04:24:51.488Z,3.53
2018-07-03T04:27:19.077Z,3.63
2018-07-03T04:29:47.029Z,4.03
2018-07-03T04:32:14.705Z,4.00
2018-07-03T04:34:43.310Z,3.60
2018-07-03T04:37:10.969Z,4.13
2018-07-03T04:39:38.578Z,3.60
2018-07-03T04:42:06.322Z,3.30
2018-07-03T04:44:34.921Z,3.67
2018-07-03T04:47:02.537Z,3.37
2018-07-03T04:49:30.130Z,3.70
2018-07-03T04:51:57.743Z,3.73
2018-07-03T04:54:25.453Z,3.50
2018-07-03T04:56:53.153Z,3.23
2018-07-03T04:59:20.739Z,3.60
2018-07-03T05:01:48.409Z,3.50
2018-07-03T05:04:16.081Z,3.80
2018-07-03T05:06:43.715Z,3.27
2018-07-03T05:09:12.029Z,3.30
2018-07-03T05:11:39.677Z,3.90
2018-07-03T05:14:07.963Z,3.10
2018-07-03T05:16:35.550Z,3.07
2018-07-03T05:19:03.207Z,3.67
2018-07-03T05:21:30.874Z,3.90
2018-07-03T05:23:58.515Z,3.23
2018-07-03T05:26:26.125Z,3.13
2018-07-03T05:28:53.739Z,3.23
2018-07-03T05:31:21.341Z,3.00
2018-07-03T05:33:48.967Z,3.07
2018-07-03T05:36:16.626Z,3.20
2018-07-03T05:38:44.256Z,3.83
2018-07-03T05:41:11.997Z,3.40
2018-07-03T05:43:39.629Z,3.50
2018-07-03T05:46:07.317Z,3.87
2018-07-03T05:48:34.981Z,3.27
2018-07-03T05:51:02.501Z,3.50
2018-07-03T05:53:30.119Z,3.67
2018-07-03T05:55:57.901Z,3.10
2018-07-03T05:58:25.769Z,3.30
2018-07-03T06:00:53.407Z,4.23
2018-07-03T06:03:21.008Z,3.63
2018-07-03T06:05:48.629Z,3.13
2018-07-03T06:08:16.203Z,3.50
2018-07-03T06:10:43.776Z,3.43
2018-07-03T06:13:11.442Z,3.10
2018-07-03T06:15:38.999Z,3.50
2018-07-03T06:18:07.518Z,3.60
2018-07-03T06:20:38.268Z,2.70
2018-07-03T06:23:05.945Z,3.30
2018-07-03T06:25:33.553Z,3.00
2018-07-03T06:28:01.190Z,4.00
2018-07-03T06:30:28.853Z,3.70
2018-07-03T06:32:56.776Z,3.53
2018-07-03T06:35:24.487Z,3.43
2018-07-03T06:37:52.229Z,3.97
2018-07-03T06:40:19.944Z,3.67
2018-07-03T06:42:47.533Z,2.70
2018-07-03T06:45:16.546Z,3.10
2018-07-03T06:47:44.222Z,3.17
2018-07-03T06:50:11.874Z,2.60
2018-07-03T06:52:39.544Z,2.50
2018-07-03T06:55:07.204Z,2.70
2018-07-03T06:57:34.837Z,2.77
2018-07-03T07:00:02.446Z,2.77
2018-07-03T07:02:30.033Z,2.53
2018-07-03T07:04:57.695Z,2.83
2018-07-03T07:07:25.375Z,2.93
2018-07-03T07:09:52.994Z,2.73
2018-07-03T07:12:20.654Z,2.97
2018-07-03T07:14:48.320Z,2.67
2018-07-03T07:17:15.959Z,2.90
2018-07-03T07:19:43.593Z,2.93
2018-07-03T07:22:11.154Z,3.37
2018-07-03T07:24:39.350Z,3.03
2018-07-03T07:27:06.971Z,2.70
2018-07-03T07:29:34.555Z,2.87
2018-07-03T07:32:02.205Z,2.23
2018-07-03T07:34:29.770Z,2.77
2018-07-03T07:36:57.348Z,2.97
2018-07-03T07:39:24.900Z,3.07
2018-07-03T07:41:53.114Z,2.87
2018-07-03T07:44:20.789Z,2.60
2018-07-03T07:46:48.472Z,2.77
2018-07-03T07:49:15.975Z,2.63
2018-07-03T07:51:43.585Z,2.40
2018-07-03T07:54:11.401Z,2.60
2018-07-03T07:56:39.035Z,2.40
2018-07-03T07:59:06.682Z,2.30
2018-07-03T08:01:34.295Z,2.50
2018-07-03T08:04:01.928Z,2.77
2018-07-03T08:06:29.507Z,2.30
2018-07-03T08:08:57.132Z,2.03
2018-07-03T08:11:25.052Z,2.50
2018-07-03T08:13:52.728Z,2.57
2018-07-03T08:16:20.299Z,2.20
2018-07-03T08:18:48.428Z,2.60
2018-07-03T08:21:16.032Z,1.97
2018-07-03T08:23:43.624Z,2.87
2018-07-03T08:28:46.659Z,2.40
2018-07-03T08:31:14.290Z,2.20
2018-07-03T08:33:41.885Z,2.30
2018-07-03T08:36:09.525Z,3.40
2018-07-03T08:38:38.139Z,1.83
2018-07-03T08:41:05.829Z,1.50
2018-07-03T08:43:33.426Z,2.30
2018-07-03T08:46:01.058Z,2.17
2018-07-03T08:48:28.695Z,1.63
2018-07-03T08:50:56.268Z,1.97
2018-07-03T08:53:23.944Z,1.63
2018-07-03T08:55:51.417Z,1.57
2018-07-03T08:58:19.019Z,1.60
2018-07-03T09:00:46.681Z,1.40
2018-07-03T09:03:14.288Z,1.50
2018-07-03T09:05:41.907Z,1.37
2018-07-03T09:08:09.550Z,1.90
2018-07-03T09:10:37.119Z,1.50
2018-07-03T09:13:04.768Z,1.60
2018-07-03T09:15:32.429Z,1.20
2018-07-03T09:18:00.147Z,1.97
2018-07-03T09:20:28.287Z,1.40
2018-07-03T09:22:55.979Z,1.57
2018-07-03T09:25:24.143Z,1.50
2018-07-03T09:27:51.690Z,1.27
2018-07-03T09:30:19.348Z,1.57
2018-07-03T09:32:46.944Z,1.40
2018-07-03T09:35:16.089Z,1.40
2018-07-03T09:37:43.704Z,1.53
2018-07-03T09:40:11.342Z,1.70
2018-07-03T09:42:38.972Z,1.70
2018-07-03T09:45:07.308Z,1.70
2018-07-03T09:47:34.867Z,1.53
2018-07-03T09:50:02.531Z,1.57
2018-07-03T09:52:30.170Z,1.87
2018-07-03T09:54:57.795Z,1.53
2018-07-03T09:57:32.020Z,1.73
2018-07-03T09:59:59.607Z,1.80
2018-07-03T10:02:27.175Z,1.80
2018-07-03T10:04:54.798Z,1.50
2018-07-03T10:07:22.453Z,1.40
2018-07-03T10:09:50.170Z,1.43
2018-07-03T10:12:18.581Z,1.77
2018-07-03T10:14:46.215Z,1.50
2018-07-03T10:17:13.833Z,1.43
2018-07-03T10:19:42.818Z,1.47
2018-07-03T10:22:10.484Z,1.33
2018-07-03T10:24:38.114Z,2.87
2018-07-03T10:27:05.807Z,1.40
2018-07-03T10:29:33.364Z,1.27
2018-07-03T10:32:01.079Z,1.90
2018-07-03T10:34:28.665Z,1.53
2018-07-03T10:36:56.953Z,1.70
2018-07-03T10:39:25.016Z,1.60
2018-07-03T10:41:52.887Z,1.63
2018-07-03T10:44:21.564Z,2.40
2018-07-03T10:46:49.181Z,1.60
2018-07-03T10:49:16.771Z,1.93
2018-07-03T10:51:44.406Z,1.20
2018-07-03T10:54:12.087Z,1.40
2018-07-03T10:56:40.422Z,1.63
2018-07-03T10:59:08.107Z,1.60
2018-07-03T11:01:35.724Z,1.53
2018-07-03T11:04:03.381Z,1.73
2018-07-03T11:06:30.952Z,1.50
2018-07-03T11:08:58.604Z,1.40
2018-07-03T11:11:26.192Z,1.80
2018-07-03T11:13:53.806Z,1.47
2018-07-03T11:16:21.462Z,1.57
2018-07-03T11:18:49.036Z,1.63
2018-07-03T11:21:16.612Z,2.00
2018-07-03T11:23:44.335Z,1.70
2018-07-03T11:26:11.992Z,1.90
2018-07-03T11:28:39.562Z,1.70
2018-07-03T11:31:08.090Z,1.73
2018-07-03T11:33:36.270Z,1.50
2018-07-03T11:36:03.925Z,1.50
2018-07-03T11:38:31.571Z,1.60
2018-07-03T11:40:59.249Z,1.73
2018-07-03T11:43:27.794Z,2.10
2018-07-03T11:45:55.466Z,2.00
2018-07-03T11:48:24.109Z,1.83
2018-07-03T11:50:51.949Z,1.97
2018-07-03T11:53:19.683Z,2.70
2018-07-03T11:55:47.388Z,1.90
2018-07-03T11:58:15.051Z,2.23
2018-07-03T12:00:42.743Z,2.37
2018-07-03T12:03:10.378Z,2.47
2018-07-03T12:05:38.040Z,2.57
2018-07-03T12:08:05.753Z,2.30
2018-07-03T12:10:33.333Z,2.67
2018-07-03T12:13:00.979Z,3.00
2018-07-03T12:15:35.691Z,2.60
2018-07-03T12:18:04.128Z,2.50
2018-07-03T12:20:32.755Z,2.73
2018-07-03T12:23:03.865Z,3.00
2018-07-03T12:25:31.494Z,3.23
2018-07-03T12:27:59.198Z,3.30
2018-07-03T12:30:27.758Z,3.50
2018-07-03T12:32:55.996Z,2.83
2018-07-03T12:35:24.916Z,3.43
2018-07-03T12:37:52.571Z,3.80
2018-07-03T12:40:20.207Z,3.10
2018-07-03T12:42:47.965Z,3.33
2018-07-03T12:45:15.654Z,3.47
2018-07-03T12:47:43.266Z,4.27
2018-07-03T12:50:10.970Z,4.50
2018-07-03T12:52:38.663Z,3.10
2018-07-03T12:55:06.440Z,5.10
2018-07-03T12:57:34.050Z,4.03
2018-07-03T13:00:01.729Z,4.00
2018-07-03T13:02:29.358Z,3.60
2018-07-03T13:04:57.043Z,3.70
2018-07-03T13:07:24.691Z,4.40
2018-07-03T13:09:52.238Z,4.03
2018-07-03T13:12:19.803Z,3.73
2018-07-03T13:14:47.585Z,3.90
2018-07-03T13:17:15.315Z,3.47
2018-07-03T13:19:42.949Z,4.40
2018-07-03T13:22:11.528Z,3.57
2018-07-03T13:24:39.191Z,4.43
2018-07-03T13:27:07.835Z,3.63
2018-07-03T13:29:36.520Z,4.37
2018-07-03T13:32:04.153Z,4.07
2018-07-03T13:34:31.704Z,3.80
2018-07-03T13:36:59.574Z,3.90
2018-07-03T13:39:27.463Z,4.40
2018-07-03T13:41:55.104Z,4.47
2018-07-03T13:44:38.356Z,4.50
2018-07-03T13:47:05.994Z,4.47
2018-07-03T13:49:33.647Z,4.30
2018-07-03T13:52:01.256Z,4.73
2018-07-03T13:54:28.887Z,5.13
2018-07-03T13:56:56.516Z,5.20
2018-07-03T13:59:24.175Z,5.00
2018-07-03T14:01:51.825Z,5.60
2018-07-03T14:04:19.461Z,5.70
2018-07-03T14:06:47.734Z,5.90
2018-07-03T14:09:15.389Z,5.90
2018-07-03T14:11:42.985Z,5.97
2018-07-03T14:14:10.678Z,6.73
2018-07-03T14:16:38.277Z,5.83
2018-07-03T14:19:06.011Z,5.83
2018-07-03T14:21:33.703Z,5.67
2018-07-03T14:24:01.390Z,5.70
2018-07-03T14:26:29.038Z,5.20
2018-07-03T14:28:57.316Z,5.00
2018-07-03T14:31:24.943Z,5.30
2018-07-03T14:33:52.538Z,4.97
2018-07-03T14:36:20.214Z,4.80
2018-07-03T14:38:47.862Z,5.10
2018-07-03T14:41:15.516Z,5.50
2018-07-03T14:43:44.856Z,6.63
2018-07-03T14:46:12.448Z,5.20
2018-07-03T14:48:40.085Z,5.80
2018-07-03T14:51:07.689Z,5.60
2018-07-03T14:53:36.073Z,5.30
2018-07-03T14:56:03.692Z,5.40
2018-07-03T14:58:31.322Z,5.27
2018-07-03T15:00:59.015Z,5.50
2018-07-03T15:03:27.264Z,5.83
2018-07-03T15:05:54.782Z,5.20
2018-07-03T15:08:22.902Z,5.00
2018-07-03T15:10:51.229Z,5.63
2018-07-03T15:13:18.864Z,5.20
2018-07-03T15:15:47.022Z,4.80
2018-07-03T15:18:14.695Z,5.30
2018-07-03T15:20:42.314Z,4.97
2018-07-03T15:23:09.950Z,4.97
2018-07-03T15:25:37.635Z,4.10
2018-07-03T15:28:05.268Z,4.70
2018-07-03T15:30:32.903Z,4.60
2018-07-03T15:33:00.499Z,4.70
2018-07-03T15:35:28.252Z,4.23
2018-07-03T15:37:55.969Z,4.17
2018-07-03T15:40:23.570Z,4.33
2018-07-03T15:42:52.070Z,4.67
2018-07-03T15:45:20.215Z,4.30
2018-07-03T15:47:54.648Z,4.90
2018-07-03T15:50:22.276Z,5.10
2018-07-03T15:52:50.498Z,5.00
2018-07-03T15:55:18.125Z,5.00
2018-07-03T15:57:45.714Z,5.57
2018-07-03T16:00:14.914Z,5.00
2018-07-03T16:02:54.783Z,5.00
2018-07-03T16:05:34.623Z,4.50
2018-07-03T16:08:11.114Z,4.33
2018-07-03T16:10:39.702Z,4.00
2018-07-03T16:13:07.329Z,4.30
2018-07-03T16:15:34.961Z,4.20
2018-07-03T16:18:02.578Z,3.67
2018-07-03T16:20:35.608Z,4.10
2018-07-03T16:23:03.308Z,3.07
2018-07-03T16:25:31.666Z,3.30
2018-07-03T16:27:59.351Z,3.23
2018-07-03T16:30:26.906Z,3.63
2018-07-03T16:32:54.538Z,3.47
2018-07-03T16:35:22.175Z,3.00
2018-07-03T16:37:49.790Z,3.60
2018-07-03T16:40:18.369Z,3.93
2018-07-03T16:42:46.066Z,3.57
2018-07-03T16:45:13.654Z,3.80
2018-07-03T16:47:41.278Z,3.93
2018-07-03T16:50:12.249Z,3.93
2018-07-03T16:52:39.875Z,4.40
2018-07-03T16:55:07.956Z,3.60
2018-07-03T16:57:35.690Z,3.63
2018-07-03T17:00:04.452Z,3.57
2018-07-03T17:02:32.592Z,3.40
2018-07-03T17:05:00.713Z,3.40
2018-07-03T17:07:28.612Z,3.90
2018-07-03T17:09:56.210Z,3.90
2018-07-03T17:12:23.792Z,3.33
2018-07-03T17:14:51.473Z,3.50
2018-07-03T17:17:19.084Z,3.30
2018-07-03T17:19:47.279Z,4.07
2018-07-03T17:22:15.519Z,4.30
2018-07-03T17:24:43.154Z,3.80
2018-07-03T17:27:10.771Z,3.70
2018-07-03T17:29:39.040Z,3.20
2018-07-03T17:32:07.450Z,3.63
2018-07-03T17:34:35.133Z,3.73
2018-07-03T17:37:02.855Z,3.50
2018-07-03T17:39:41.804Z,3.70
2018-07-03T17:42:20.611Z,3.40
2018-07-03T17:46:56.275Z,3.00
2018-07-03T17:49:23.840Z,4.00
2018-07-03T17:51:51.557Z,4.17
2018-07-03T17:54:19.167Z,3.97
2018-07-03T17:56:47.626Z,3.57
2018-07-03T17:59:18.803Z,3.33
2018-07-03T18:01:46.407Z,3.40
2018-07-03T18:04:14.016Z,2.73
2018-07-03T18:06:41.664Z,3.60
2018-07-03T18:09:10.659Z,3.70
2018-07-03T18:11:38.352Z,3.80
2018-07-03T18:14:06.494Z,3.70
2018-07-03T18:16:34.773Z,3.50
2018-07-03T18:19:08.179Z,3.57
2018-07-03T18:21:35.868Z,3.43
2018-07-03T18:24:03.773Z,3.00
2018-07-03T18:26:32.427Z,3.30
2018-07-03T18:29:00.590Z,3.90
2018-07-03T18:31:28.115Z,3.20
2018-07-03T18:33:55.830Z,3.00
2018-07-03T18:36:23.568Z,3.03
2018-07-03T18:38:51.251Z,3.20
2018-07-03T18:41:18.907Z,3.60
2018-07-03T18:43:46.710Z,2.90
2018-07-03T18:46:14.433Z,2.87
2018-07-03T18:48:42.100Z,2.73
2018-07-03T18:51:09.783Z,2.90
2018-07-03T18:53:37.507Z,3.13
2018-07-03T18:56:05.332Z,2.87
2018-07-03T18:58:33.068Z,3.07
2018-07-03T19:01:01.605Z,3.30
2018-07-03T19:03:30.291Z,3.17
2018-07-03T19:05:58.026Z,2.40
2018-07-03T19:08:25.749Z,3.10
2018-07-03T19:10:54.498Z,3.10
2018-07-03T19:13:22.196Z,2.80
2018-07-03T19:15:49.795Z,2.50
2018-07-03T19:18:17.438Z,2.50
2018-07-03T19:20:45.203Z,3.00
2018-07-03T19:23:12.845Z,3.27
2018-07-03T19:25:41.470Z,3.10
2018-07-03T19:28:09.242Z,3.20
2018-07-03T19:30:37.486Z,3.00
2018-07-03T19:33:05.215Z,3.20
2018-07-03T19:35:32.882Z,2.90
2018-07-03T19:38:04.247Z,3.50
2018-07-03T19:40:32.644Z,3.10
2018-07-03T19:43:36.226Z,3.33
2018-07-03T19:46:04.532Z,3.47
2018-07-03T19:48:32.223Z,3.20
2018-07-03T19:50:59.912Z,3.10
2018-07-03T19:53:27.731Z,3.30
2018-07-03T19:55:56.769Z,3.37
2018-07-03T19:58:24.533Z,3.30
2018-07-03T20:00:53.327Z,3.30
2018-07-03T20:03:21.036Z,3.30
2018-07-03T20:05:48.770Z,3.57
2018-07-03T20:08:16.473Z,3.83
2018-07-03T20:10:44.289Z,4.27
2018-07-03T20:13:13.631Z,3.67
2018-07-03T20:15:41.278Z,3.30
2018-07-03T20:18:10.444Z,4.13
2018-07-03T20:20:38.177Z,3.60
2018-07-03T20:23:06.586Z,3.50
2018-07-03T20:25:36.058Z,4.00
2018-07-03T20:28:03.767Z,3.60
2018-07-03T20:30:31.478Z,4.20
2018-07-03T20:32:59.246Z,4.00
2018-07-03T20:35:27.079Z,3.80
2018-07-03T20:38:09.251Z,3.53
2018-07-03T20:40:48.751Z,3.20
2018-07-03T20:43:16.453Z,3.90
2018-07-03T20:45:43.965Z,3.90
2018-07-03T20:48:11.605Z,3.50
2018-07-03T20:50:39.242Z,3.40
2018-07-03T20:53:06.783Z,4.00
2018-07-03T20:55:34.442Z,4.67
2018-07-03T20:58:02.109Z,3.77
2018-07-03T21:00:29.767Z,4.20
2018-07-03T21:02:57.405Z,3.70
2018-07-03T21:05:25.720Z,4.67
2018-07-03T21:07:53.687Z,4.13
2018-07-03T21:10:21.196Z,4.00
2018-07-03T21:12:48.870Z,4.53
2018-07-03T21:15:17.112Z,4.20
2018-07-03T21:17:44.757Z,4.20
2018-07-03T21:20:12.490Z,4.00
2018-07-03T21:22:40.179Z,4.50
2018-07-03T21:25:07.894Z,4.00
2018-07-03T21:27:35.536Z,3.93
2018-07-03T21:30:03.325Z,4.30
2018-07-03T21:32:31.561Z,4.20
2018-07-03T21:34:59.253Z,5.40
2018-07-03T21:37:26.883Z,5.53
2018-07-03T21:39:54.494Z,5.30
2018-07-03T21:42:22.141Z,5.47
2018-07-03T21:44:49.763Z,5.77
2018-07-03T21:47:17.361Z,5.77
2018-07-03T21:49:45.009Z,6.03
2018-07-03T21:52:12.623Z,6.00
2018-07-03T21:54:40.326Z,5.10
2018-07-03T21:57:08.036Z,4.70
2018-07-03T21:59:35.665Z,4.97
2018-07-03T22:02:04.285Z,5.93
2018-07-03T22:04:32.028Z,5.60
2018-07-03T22:06:59.652Z,6.60
2018-07-03T22:09:27.318Z,5.90
2018-07-03T22:11:55.043Z,6.93
2018-07-03T22:14:22.645Z,5.80
2018-07-03T22:16:50.247Z,6.10
2018-07-03T22:19:17.865Z,5.87
2018-07-03T22:21:45.596Z,6.00
2018-07-03T22:24:14.212Z,6.20
2018-07-03T22:26:41.844Z,5.40
2018-07-03T22:29:09.399Z,7.10
2018-07-03T22:31:37.035Z,7.10
2018-07-03T22:34:04.685Z,6.13
2018-07-03T22:36:32.330Z,7.77
2018-07-03T22:39:00.004Z,8.73
2018-07-03T22:41:27.652Z,8.00
2018-07-03T22:43:56.107Z,7.37
2018-07-03T22:46:23.687Z,7.70
2018-07-03T22:48:51.312Z,5.93
2018-07-03T22:51:18.934Z,6.77
2018-07-03T22:53:46.582Z,6.10
2018-07-03T22:56:14.183Z,7.43
2018-07-03T22:58:42.632Z,6.37
2018-07-03T23:01:10.278Z,7.10
2018-07-03T23:03:38.800Z,7.27
2018-07-03T23:06:06.406Z,7.60
2018-07-03T23:08:34.080Z,6.80
2018-07-03T23:11:01.721Z,7.40
2018-07-03T23:13:29.316Z,8.20
2018-07-03T23:15:56.975Z,6.90
2018-07-03T23:18:25.404Z,6.47
2018-07-03T23:20:53.034Z,7.63
2018-07-03T23:23:20.640Z,7.30
2018-07-03T23:25:48.172Z,7.53
2018-07-03T23:28:15.721Z,7.60
2018-07-03T23:30:43.348Z,7.80
2018-07-03T23:33:10.927Z,6.10
2018-07-03T23:35:38.626Z,7.03
2018-07-03T23:38:06.409Z,7.17
2018-07-03T23:40:34.007Z,6.23
2018-07-03T23:43:01.546Z,7.37
2018-07-03T23:45:39.077Z,5.80
2018-07-03T23:48:18.477Z,6.97
2018-07-03T23:50:58.493Z,6.30
2018-07-03T23:53:39.299Z,7.50
2018-07-03T23:56:19.331Z,7.20
2018-07-03T23:58:58.134Z,7.80
